createdAt,value
2023-03-17T00:01:21.058Z,4.40
2023-03-17T00:03:49.268Z,4.36
2023-03-17T00:06:19.327Z,4.32
2023-03-17T00:08:47.690Z,4.31
2023-03-17T00:11:17.313Z,4.24
2023-03-17T00:13:45.901Z,4.22
2023-03-17T00:16:28.320Z,4.22
2023-03-17T00:18:56.267Z,4.23
2023-03-17T00:21:34.129Z,4.19
2023-03-17T00:24:03.498Z,4.18
2023-03-17T00:26:31.384Z,4.12
2023-03-17T00:28:59.975Z,4.07
2023-03-17T00:31:30.073Z,4.07
2023-03-17T00:33:58.049Z,4.04
2023-03-17T00:36:29.581Z,4.05
2023-03-17T00:38:57.690Z,4.06
2023-03-17T00:41:25.692Z,4.04
2023-03-17T00:43:53.720Z,4.02
2023-03-17T00:46:25.242Z,3.98
2023-03-17T00:48:53.141Z,3.97
2023-03-17T00:51:22.271Z,3.95
2023-03-17T00:53:58.368Z,3.92
2023-03-17T00:56:26.409Z,3.90
2023-03-17T00:58:54.187Z,3.90
2023-03-17T01:01:22.310Z,3.89
2023-03-17T01:03:50.302Z,3.93
2023-03-17T01:06:18.126Z,3.96
2023-03-17T01:08:46.170Z,3.97
2023-03-17T01:11:19.810Z,3.94
2023-03-17T01:13:47.876Z,3.94
2023-03-17T01:16:16.780Z,3.94
2023-03-17T01:18:44.892Z,3.88
2023-03-17T01:21:12.759Z,3.87
2023-03-17T01:23:40.769Z,3.84
2023-03-17T01:26:08.983Z,3.83
2023-03-17T01:28:36.922Z,3.79
2023-03-17T01:31:05.176Z,3.80
2023-03-17T01:33:33.190Z,3.79
2023-03-17T01:36:01.176Z,3.79
2023-03-17T01:38:29.121Z,3.77
2023-03-17T01:40:57.041Z,3.75
2023-03-17T01:43:31.099Z,3.76
2023-03-17T01:46:30.494Z,3.74
2023-03-17T01:49:07.330Z,3.72
2023-03-17T01:51:44.095Z,3.67
2023-03-17T01:54:58.516Z,3.67
2023-03-17T01:57:33.089Z,3.70
2023-03-17T02:00:07.497Z,3.73
2023-03-17T02:02:40.352Z,3.71
2023-03-17T02:05:10.570Z,3.70
2023-03-17T02:07:38.902Z,3.72
2023-03-17T02:10:07.826Z,3.73
2023-03-17T02:12:36.014Z,3.73
2023-03-17T02:15:04.501Z,3.73
2023-03-17T02:17:32.374Z,3.74
2023-03-17T02:20:13.847Z,3.74
2023-03-17T02:22:41.720Z,3.82
2023-03-17T02:25:09.589Z,3.80
2023-03-17T02:27:39.798Z,3.79
2023-03-17T02:30:25.535Z,3.75
2023-03-17T02:32:53.654Z,3.74
2023-03-17T02:35:21.729Z,3.73
2023-03-17T02:37:49.530Z,3.75
2023-03-17T02:40:17.943Z,3.75
2023-03-17T02:42:45.869Z,3.73
2023-03-17T02:45:18.271Z,3.72
2023-03-17T02:47:46.130Z,3.71
2023-03-17T02:50:20.324Z,3.66
2023-03-17T02:52:48.279Z,3.67
2023-03-17T02:55:16.213Z,3.64
2023-03-17T02:57:44.110Z,3.64
2023-03-17T03:00:12.867Z,3.62
2023-03-17T03:02:40.829Z,3.65
2023-03-17T03:05:10.013Z,3.63
2023-03-17T03:07:37.953Z,3.59
2023-03-17T03:10:06.983Z,3.58
2023-03-17T03:12:34.797Z,3.57
2023-03-17T03:15:02.755Z,3.54
2023-03-17T03:17:30.780Z,3.53
2023-03-17T03:19:59.075Z,3.50
2023-03-17T03:22:26.905Z,3.46
2023-03-17T03:24:54.823Z,3.49
2023-03-17T03:27:22.919Z,3.45
2023-03-17T03:29:50.777Z,3.44
2023-03-17T03:32:18.645Z,3.42
2023-03-17T03:34:46.495Z,3.46
2023-03-17T03:37:14.464Z,3.48
2023-03-17T03:39:42.375Z,3.51
2023-03-17T03:42:10.317Z,3.49
2023-03-17T03:44:38.231Z,3.47
2023-03-17T03:47:06.241Z,3.50
2023-03-17T03:49:34.107Z,3.53
2023-03-17T03:52:02.004Z,3.52
2023-03-17T03:54:30.945Z,3.54
2023-03-17T03:56:58.862Z,3.49
2023-03-17T03:59:26.754Z,3.49
2023-03-17T04:01:54.593Z,3.48
2023-03-17T04:04:23.034Z,3.44
2023-03-17T04:06:51.029Z,3.42
2023-03-17T04:09:18.802Z,3.41
2023-03-17T04:11:47.127Z,3.43
2023-03-17T04:14:15.242Z,3.47
2023-03-17T04:16:43.765Z,3.49
2023-03-17T04:19:12.345Z,3.47
2023-03-17T04:21:40.355Z,3.44
2023-03-17T09:14:09.486Z,9.72
2023-03-17T09:16:38.104Z,9.55
2023-03-17T09:19:12.162Z,9.52
2023-03-17T09:21:40.163Z,9.65
2023-03-17T09:24:08.468Z,9.73
2023-03-17T09:26:36.265Z,9.83
2023-03-17T09:29:04.905Z,9.93
2023-03-17T09:31:33.813Z,9.96
2023-03-17T09:34:01.659Z,9.93
2023-03-17T09:36:29.683Z,9.93
2023-03-17T09:38:57.541Z,10.00
2023-03-17T09:41:46.874Z,9.97
2023-03-17T09:44:29.963Z,10.04
2023-03-17T09:47:08.567Z,10.31
2023-03-17T09:49:41.426Z,10.66
2023-03-17T09:52:17.304Z,11.04
2023-03-17T09:54:45.163Z,11.43
2023-03-17T09:57:30.620Z,11.79
2023-03-17T10:00:13.273Z,11.87
2023-03-17T10:02:41.338Z,12.05
2023-03-17T10:05:12.884Z,12.06
2023-03-17T10:07:45.838Z,12.25
2023-03-17T10:10:21.288Z,12.56
2023-03-17T10:13:10.587Z,12.72
2023-03-17T10:15:53.769Z,12.77
2023-03-17T10:18:24.509Z,12.76
2023-03-17T10:20:55.457Z,12.70
2023-03-17T10:23:25.530Z,12.80
2023-03-17T10:25:53.621Z,12.80
2023-03-17T10:28:31.166Z,12.87
2023-03-17T10:31:18.812Z,12.88
2023-03-17T10:33:49.954Z,12.89
2023-03-17T10:36:18.346Z,13.14
2023-03-17T10:38:53.699Z,13.23
2023-03-17T10:41:21.654Z,13.27
2023-03-17T10:43:51.900Z,13.39
2023-03-17T10:46:25.419Z,13.46
2023-03-17T10:48:58.630Z,13.46
2023-03-17T10:51:32.334Z,13.53
2023-03-17T10:54:05.312Z,13.59
2023-03-17T10:56:41.139Z,13.60
2023-03-17T10:59:20.105Z,13.52
2023-03-17T11:01:50.959Z,13.63
2023-03-17T11:04:32.908Z,13.65
2023-03-17T11:07:02.136Z,13.69
2023-03-17T11:09:31.746Z,13.68
2023-03-17T11:12:03.809Z,13.64
2023-03-17T11:14:32.238Z,13.62
2023-03-17T11:17:13.740Z,13.73
2023-03-17T11:19:50.481Z,13.67
2023-03-17T11:22:39.236Z,13.60
2023-03-17T11:25:20.818Z,13.60
2023-03-17T11:27:54.940Z,13.64
2023-03-17T11:30:33.839Z,13.62
2023-03-17T11:33:13.200Z,13.66
2023-03-17T11:35:59.218Z,13.80
2023-03-17T11:38:31.423Z,14.07
2023-03-17T11:41:12.094Z,14.27
2023-03-17T11:43:51.683Z,14.38
2023-03-17T11:46:28.761Z,14.31
2023-03-17T11:49:09.696Z,14.21
2023-03-17T11:51:41.644Z,14.28
2023-03-17T11:54:21.134Z,14.38
2023-03-17T11:56:55.506Z,14.34
2023-03-17T11:59:41.991Z,14.34
2023-03-17T12:02:23.765Z,14.36
2023-03-17T12:04:57.071Z,14.43
2023-03-17T12:07:27.078Z,14.59
2023-03-17T12:10:16.712Z,14.74
2023-03-17T12:13:08.213Z,14.83
2023-03-17T12:15:54.140Z,15.12
2023-03-17T12:18:35.020Z,15.24
2023-03-17T12:21:08.815Z,15.12
2023-03-17T12:23:56.184Z,14.84
2023-03-17T12:26:49.681Z,14.79
2023-03-17T12:29:42.348Z,14.77
2023-03-17T12:32:25.605Z,14.90
2023-03-17T12:35:33.305Z,15.19
2023-03-17T12:38:13.138Z,15.77
2023-03-17T12:41:04.400Z,16.11
2023-03-17T12:43:43.721Z,16.45
2023-03-17T12:46:15.411Z,16.90
2023-03-17T12:48:58.415Z,17.27
2023-03-17T12:51:38.572Z,17.48
2023-03-17T12:54:06.969Z,17.39
2023-03-17T12:56:35.510Z,17.23
2023-03-17T12:59:08.315Z,17.50
2023-03-17T13:01:58.551Z,17.75
2023-03-17T13:04:39.354Z,17.83
2023-03-17T13:07:15.565Z,17.85
2023-03-17T13:09:50.061Z,17.97
2023-03-17T13:12:45.744Z,18.04
2023-03-17T13:15:22.687Z,18.19
2023-03-17T13:17:50.742Z,18.27
2023-03-17T13:20:20.140Z,18.29
2023-03-17T13:23:12.469Z,18.03
2023-03-17T13:25:40.618Z,18.20
2023-03-17T13:28:14.937Z,18.40
2023-03-17T13:31:12.620Z,18.57
2023-03-17T13:33:50.705Z,18.74
2023-03-17T13:36:29.793Z,18.71
2023-03-17T13:39:22.388Z,18.67
2023-03-17T13:42:12.073Z,18.74
2023-03-17T13:45:19.948Z,18.56
2023-03-17T13:47:48.406Z,18.33
2023-03-17T13:50:30.716Z,18.08
2023-03-17T13:53:11.614Z,18.01
2023-03-17T13:55:41.934Z,17.85
2023-03-17T13:58:11.656Z,17.79
2023-03-17T14:00:41.393Z,17.74
2023-03-17T14:03:28.646Z,17.81
2023-03-17T14:05:56.396Z,18.07
2023-03-17T14:08:37.007Z,18.08
2023-03-17T14:11:18.051Z,18.20
2023-03-17T14:14:08.132Z,18.17
2023-03-17T14:16:38.255Z,17.91
2023-03-17T14:19:20.804Z,17.76
2023-03-17T14:21:48.890Z,17.74
2023-03-17T14:24:31.798Z,17.74
2023-03-17T14:26:59.647Z,17.69
2023-03-17T14:29:30.788Z,17.67
2023-03-17T14:32:28.197Z,17.72
2023-03-17T14:34:57.830Z,17.76
2023-03-17T14:37:25.833Z,17.95
2023-03-17T14:39:56.745Z,17.99
2023-03-17T14:42:31.825Z,18.00
2023-03-17T14:45:07.691Z,17.99
2023-03-17T14:47:42.440Z,18.01
2023-03-17T14:50:31.561Z,17.93
2023-03-17T14:53:00.249Z,17.87
2023-03-17T14:55:42.677Z,17.78
2023-03-17T14:58:19.083Z,17.74
2023-03-17T15:00:48.637Z,17.58
2023-03-17T15:03:24.553Z,17.49
2023-03-17T15:05:52.610Z,17.39
2023-03-17T15:08:50.173Z,17.23
2023-03-17T15:11:29.060Z,17.11
2023-03-17T15:14:04.956Z,17.04
2023-03-17T15:16:35.529Z,16.98
2023-03-17T15:19:16.551Z,16.94
2023-03-17T15:21:44.673Z,16.92
2023-03-17T15:24:41.910Z,16.85
2023-03-17T15:27:17.125Z,16.83
2023-03-17T15:29:45.600Z,16.77
2023-03-17T15:32:18.408Z,16.70
2023-03-17T15:34:46.651Z,16.67
2023-03-17T15:37:25.047Z,16.59
2023-03-17T15:39:54.175Z,16.53
2023-03-17T15:42:23.433Z,16.45
2023-03-17T15:44:51.814Z,16.39
2023-03-17T15:47:21.013Z,16.33
2023-03-17T15:49:49.245Z,16.29
2023-03-17T15:52:19.017Z,16.26
2023-03-17T15:54:47.407Z,16.14
2023-03-17T15:57:15.243Z,16.06
2023-03-17T15:59:43.154Z,15.99
2023-03-17T16:02:31.762Z,15.93
2023-03-17T16:05:00.921Z,15.84
2023-03-17T16:07:28.993Z,15.69
2023-03-17T16:09:56.951Z,15.48
2023-03-17T16:12:25.130Z,15.29
2023-03-17T16:14:52.886Z,15.10
2023-03-17T16:17:26.908Z,14.94
2023-03-17T16:19:54.912Z,14.72
2023-03-17T16:22:43.141Z,14.60
2023-03-17T16:25:28.027Z,14.44
2023-03-17T16:27:57.858Z,14.30
2023-03-17T16:30:30.845Z,14.19
2023-03-17T16:33:23.029Z,14.10
2023-03-17T16:35:51.526Z,14.02
2023-03-17T16:38:22.427Z,13.98
2023-03-17T16:40:52.368Z,13.92
2023-03-17T16:43:30.976Z,13.74
2023-03-17T16:46:03.377Z,13.67
2023-03-17T16:48:31.441Z,13.56
2023-03-17T16:50:59.687Z,13.49
2023-03-17T16:53:27.858Z,13.38
2023-03-17T16:55:56.104Z,13.25
2023-03-17T16:58:42.954Z,13.20
2023-03-17T17:01:16.097Z,13.14
2023-03-17T17:03:44.197Z,13.08
2023-03-17T17:06:12.783Z,13.00
2023-03-17T17:08:43.651Z,12.97
2023-03-17T17:11:14.224Z,12.87
2023-03-17T17:13:43.265Z,12.83
2023-03-17T17:16:33.851Z,12.78
2023-03-17T17:19:02.311Z,12.73
2023-03-17T17:21:30.175Z,12.68
2023-03-17T17:23:58.688Z,12.62
2023-03-17T17:26:26.755Z,12.54
2023-03-17T17:28:54.669Z,12.50
2023-03-17T17:31:22.471Z,12.47
2023-03-17T17:33:50.452Z,12.39
2023-03-17T17:36:18.383Z,12.36
2023-03-17T17:38:46.551Z,12.33
2023-03-17T17:41:14.844Z,12.33
2023-03-17T17:43:42.759Z,12.29
2023-03-17T17:46:15.809Z,12.21
2023-03-17T17:48:43.855Z,12.15
2023-03-17T17:51:11.687Z,12.10
2023-03-17T17:53:39.542Z,12.05
2023-03-17T17:56:08.039Z,11.98
2023-03-17T17:58:35.939Z,11.88
2023-03-17T18:01:05.948Z,11.83
2023-03-17T18:03:33.981Z,11.76
2023-03-17T18:06:02.242Z,11.65
2023-03-17T18:08:30.248Z,11.62
2023-03-17T18:10:58.468Z,11.56
2023-03-17T18:13:26.486Z,11.50
2023-03-17T18:15:54.318Z,11.49
2023-03-17T18:18:22.209Z,11.43
2023-03-17T18:20:50.011Z,11.34
2023-03-17T18:23:18.781Z,11.24
2023-03-17T18:25:46.622Z,11.21
2023-03-17T18:28:14.389Z,11.22
2023-03-17T18:30:42.493Z,11.19
2023-03-17T18:33:13.065Z,11.17
2023-03-17T18:35:41.164Z,11.10
2023-03-17T18:38:09.949Z,11.03
2023-03-17T18:40:38.057Z,11.04
2023-03-17T18:43:05.990Z,11.03
2023-03-17T18:45:34.000Z,11.01
2023-03-17T18:48:02.018Z,10.97
2023-03-17T18:50:30.169Z,10.96
2023-03-17T18:52:58.477Z,10.89
2023-03-17T18:55:26.560Z,10.81
2023-03-17T18:57:56.123Z,10.82
2023-03-17T19:00:26.507Z,10.77
2023-03-17T19:02:54.661Z,10.70
2023-03-17T19:05:22.669Z,10.69
2023-03-17T19:07:50.542Z,10.64
2023-03-17T19:10:18.591Z,10.56
2023-03-17T19:12:47.642Z,10.59
2023-03-17T19:15:15.899Z,10.55
2023-03-17T19:17:44.210Z,10.53
2023-03-17T19:20:13.834Z,10.52
2023-03-17T19:22:41.808Z,10.50
2023-03-17T19:25:10.196Z,10.44
2023-03-17T19:27:38.347Z,10.40
2023-03-17T19:30:11.740Z,10.38
2023-03-17T19:32:39.827Z,10.39
2023-03-17T19:35:08.705Z,10.39
2023-03-17T19:37:37.320Z,10.34
2023-03-17T19:40:07.900Z,10.35
2023-03-17T19:42:36.304Z,10.33
2023-03-17T19:45:04.980Z,10.31
2023-03-17T19:47:32.959Z,10.26
2023-03-17T19:50:00.988Z,10.25
2023-03-17T19:52:28.893Z,10.23
2023-03-17T19:54:57.628Z,10.23
2023-03-17T19:57:25.586Z,10.19
2023-03-17T19:59:54.322Z,10.17
2023-03-17T20:02:23.067Z,10.16
2023-03-17T20:04:51.405Z,10.13
2023-03-17T20:07:19.380Z,10.13
2023-03-17T20:09:49.165Z,10.08
2023-03-17T20:12:17.661Z,10.03
2023-03-17T20:14:45.621Z,10.03
2023-03-17T20:17:15.104Z,10.01
2023-03-17T20:19:43.143Z,9.94
2023-03-17T20:22:11.242Z,9.89
2023-03-17T20:24:39.465Z,9.89
2023-03-17T20:27:08.221Z,9.83
2023-03-17T20:29:36.113Z,9.79
2023-03-17T20:32:04.326Z,9.79
2023-03-17T20:34:36.484Z,9.80
2023-03-17T20:37:05.072Z,9.76
2023-03-17T20:39:33.659Z,9.75
2023-03-17T20:42:02.840Z,9.67
2023-03-17T20:44:30.816Z,9.63
2023-03-17T20:46:59.017Z,9.62
2023-03-17T20:49:27.047Z,9.57
2023-03-17T20:51:55.005Z,9.55
2023-03-17T20:54:24.522Z,9.53
2023-03-17T20:56:57.022Z,9.49
2023-03-17T20:59:25.897Z,9.44
2023-03-17T21:01:53.787Z,9.42
2023-03-17T21:04:22.562Z,9.39
2023-03-17T21:06:50.965Z,9.34
2023-03-17T21:09:18.920Z,9.31
2023-03-17T21:11:46.929Z,9.28
2023-03-17T21:14:14.835Z,9.23
2023-03-17T21:16:43.872Z,9.19
2023-03-17T21:19:14.862Z,9.16
2023-03-17T21:21:42.957Z,9.15
2023-03-17T21:24:18.614Z,9.13
2023-03-17T21:26:46.436Z,9.12
2023-03-17T21:29:14.836Z,9.10
2023-03-17T21:31:42.826Z,9.11
2023-03-17T21:34:10.630Z,9.09
2023-03-17T21:36:38.437Z,9.11
2023-03-17T21:39:07.123Z,9.09
2023-03-17T21:41:37.088Z,9.06
2023-03-17T21:44:05.184Z,9.05
2023-03-17T21:46:33.762Z,8.98
2023-03-17T21:49:01.748Z,8.99
2023-03-17T21:51:33.390Z,8.96
2023-03-17T21:54:01.314Z,9.01
2023-03-17T21:56:30.022Z,9.00
2023-03-17T21:58:58.765Z,9.00
2023-03-17T22:01:27.389Z,9.00
2023-03-17T22:03:55.275Z,9.01
2023-03-17T22:06:23.144Z,8.97
2023-03-17T22:08:51.812Z,8.96
2023-03-17T22:11:20.837Z,8.95
2023-03-17T22:13:49.280Z,8.91
2023-03-17T22:16:17.596Z,8.90
2023-03-17T22:18:45.578Z,8.87
2023-03-17T22:21:13.462Z,8.83
2023-03-17T22:23:43.279Z,8.82
2023-03-17T22:26:15.720Z,8.78
2023-03-17T22:28:44.293Z,8.79
2023-03-17T22:31:17.590Z,8.71
2023-03-17T22:33:45.624Z,8.71
2023-03-17T22:36:13.496Z,8.70
2023-03-17T22:38:41.617Z,8.66
2023-03-17T22:41:10.848Z,8.63
2023-03-17T22:43:39.368Z,8.61
2023-03-17T22:46:07.364Z,8.56
2023-03-17T22:48:37.290Z,8.52
2023-03-17T22:51:06.861Z,8.50
2023-03-17T22:53:34.936Z,8.48
2023-03-17T22:56:02.795Z,8.43
2023-03-17T22:58:30.631Z,8.40
2023-03-17T23:00:58.522Z,8.35
2023-03-17T23:03:26.694Z,8.33
2023-03-17T23:05:58.303Z,8.31
2023-03-17T23:08:26.428Z,8.29
2023-03-17T23:10:55.145Z,8.27
2023-03-17T23:13:23.409Z,8.26
2023-03-17T23:15:51.616Z,8.24
2023-03-17T23:18:19.451Z,8.24
2023-03-17T23:20:47.637Z,8.21
2023-03-17T23:23:15.447Z,8.18
2023-03-17T23:25:43.306Z,8.18
2023-03-17T23:28:11.130Z,8.14
2023-03-17T23:30:38.974Z,8.13
2023-03-17T23:33:07.311Z,8.11
2023-03-17T23:35:36.788Z,8.04
2023-03-17T23:38:05.189Z,8.05
2023-03-17T23:40:33.399Z,7.99
2023-03-17T23:43:01.529Z,7.98
2023-03-17T23:45:29.380Z,7.96
2023-03-17T23:47:58.613Z,7.89
2023-03-17T23:50:26.420Z,7.89
2023-03-17T23:52:55.202Z,7.88
2023-03-17T23:55:23.086Z,7.81
2023-03-17T23:57:51.338Z,7.81
